メインページ
METAR-TAF:

METAR-TAF

空港 :

メキシコシティ, メキシコ

メキシコ・シティ国際空港

緯度: 19-26N, 経度: 099-06W, 海抜: 2238m

現時点の気象観測

当レポートは1時間20分前の20:49(UTC)に作成
南西の風 4kt
気温 23°C
湿度 25%
気圧 1022 hPa
視程: 6.4km
高度2000ftの雲は散在している
高度8000ftの千切れ雲あり

METAR: MMMX 192049Z 23004KT 4SM SCT020 BKN080 23/02 A3017 NOSIG RMK SLP044 57029 964 8/230 HZY

時間: 16:09 (22:09 UTC)

予報

当レポートは5時間36分前の16:33(UTC)に作成
予報は19日の 18時(UTC)から 20日の 24時(UTC)まで有効
の風 5kt
視程: 10km
高度2500ftの雲は散在している
19日の 2200時(UTC)から
南/南西の風 12kt
視程: 10km
高度2500ftの千切れ雲あり, 積乱雲.
19日の 23時(UTC)から 20日の 02時(UTC)まで一時的に
視程: 8.0km
激しい雷雨, 雨
20日の 0200時(UTC)から
の風 kt
視程: 10km
高度10000ftの雲は散在している
高度20000ftの千切れ雲あり
20日の 1300時(UTC)から
の風 kt
視程: 8.0km
高度20000ftの雲は散在している
煙霧
20日の 2100時(UTC)から
南西の風 10kt
視程: 10km

TAF: MMMX 191633Z 1918/2024 18005KT P6SM SCT025 TX26/1921Z TN12/2012Z FM192200 20012KT P6SM BKN025CB TEMPO 1923/2002 5SM TSRA FM200200 00000KT P6SM SCT100 BKN200 FM201300 00000KT 5SM HZ SCT200 FM202100 23010KT P6SM KN025

4,000以上の空港の気象観測と天気予報(METAR報とTAF報)

利用可能な観測所は地図上に黄色い丸と赤い丸で示す。

丸の上にカーソルを重ねると観測所名を参照できる。

次にクリックすると気象観測と天気予報を参照できる。

マップの切り替え:黒色「×」印の緑ボタンをクリックして拡大、「-」印の緑ボタンをクリックして縮小、緑色の三角印をクリックして隣りの地図に切り替え


METAR-TAF: